createdAt,value
2018-06-15T00:01:13.637Z,16.50
2018-06-15T00:03:41.221Z,16.40
2018-06-15T00:06:08.831Z,16.40
2018-06-15T00:08:37.175Z,16.40
2018-06-15T00:11:04.752Z,16.40
2018-06-15T00:13:32.903Z,16.40
2018-06-15T00:16:00.472Z,16.50
2018-06-15T00:18:28.045Z,16.50
2018-06-15T00:20:55.652Z,16.50
2018-06-15T00:23:23.224Z,16.60
2018-06-15T00:25:50.792Z,16.60
2018-06-15T00:28:18.430Z,16.60
2018-06-15T00:30:45.989Z,16.60
2018-06-15T00:33:13.554Z,16.60
2018-06-15T00:35:41.173Z,16.50
2018-06-15T00:38:08.740Z,16.50
2018-06-15T00:40:36.305Z,16.50
2018-06-15T00:43:04.674Z,16.50
2018-06-15T00:45:32.239Z,16.40
2018-06-15T00:47:59.908Z,16.50
2018-06-15T00:50:27.476Z,16.50
2018-06-15T00:52:56.069Z,16.40
2018-06-15T00:55:23.578Z,16.40
2018-06-15T00:57:51.928Z,16.40
2018-06-15T01:00:19.501Z,16.40
2018-06-15T01:02:47.067Z,16.40
2018-06-15T01:05:14.669Z,16.40
2018-06-15T01:07:42.250Z,16.30
2018-06-15T01:10:09.820Z,16.30
2018-06-15T01:12:38.189Z,16.50
2018-06-15T01:15:06.610Z,16.50
2018-06-15T01:17:34.181Z,16.50
2018-06-15T01:20:02.273Z,16.50
2018-06-15T01:22:29.844Z,16.40
2018-06-15T01:24:57.412Z,16.40
2018-06-15T01:27:25.013Z,16.40
2018-06-15T01:29:52.589Z,16.40
2018-06-15T01:32:20.165Z,16.40
2018-06-15T01:34:47.765Z,16.30
2018-06-15T01:37:16.158Z,16.30
2018-06-15T01:39:43.691Z,16.30
2018-06-15T01:42:11.305Z,16.30
2018-06-15T01:44:38.870Z,16.30
2018-06-15T01:47:06.435Z,16.40
2018-06-15T01:49:34.039Z,16.40
2018-06-15T01:52:01.609Z,16.50
2018-06-15T01:54:29.212Z,16.40
2018-06-15T01:56:56.767Z,16.50
2018-06-15T01:59:24.327Z,16.40
2018-06-15T02:01:51.902Z,16.40
2018-06-15T02:04:19.512Z,16.40
2018-06-15T02:06:47.080Z,16.40
2018-06-15T02:09:14.653Z,16.40
2018-06-15T02:11:43.024Z,16.40
2018-06-15T02:14:11.359Z,16.30
2018-06-15T02:16:38.930Z,16.40
2018-06-15T02:19:06.537Z,16.30
2018-06-15T02:21:34.872Z,16.30
2018-06-15T02:24:02.440Z,16.30
2018-06-15T02:26:30.073Z,16.30
2018-06-15T02:28:57.644Z,16.30
2018-06-15T02:31:25.214Z,16.40
2018-06-15T02:33:52.846Z,16.50
2018-06-15T02:36:21.153Z,16.50
2018-06-15T02:38:48.717Z,16.40
2018-06-15T02:41:16.316Z,16.40
2018-06-15T02:43:43.890Z,16.40
2018-06-15T02:46:12.224Z,16.40
2018-06-15T02:48:39.920Z,16.40
2018-06-15T02:51:07.435Z,16.40
2018-06-15T02:53:35.018Z,16.50
2018-06-15T02:56:02.615Z,16.50
2018-06-15T02:58:30.179Z,16.50
2018-06-15T03:00:57.755Z,16.50
2018-06-15T03:03:25.361Z,16.40
2018-06-15T03:05:52.948Z,16.50
2018-06-15T03:08:20.517Z,16.40
2018-06-15T03:10:48.908Z,16.40
2018-06-15T03:13:16.473Z,16.40
2018-06-15T03:15:44.047Z,16.40
2018-06-15T03:18:11.652Z,16.40
2018-06-15T03:20:39.214Z,16.40
2018-06-15T03:23:06.778Z,16.40
2018-06-15T03:25:34.384Z,16.40
2018-06-15T03:28:01.950Z,16.40
2018-06-15T03:30:29.517Z,16.50
2018-06-15T03:32:57.168Z,16.50
2018-06-15T03:35:24.732Z,16.50
2018-06-15T03:37:52.309Z,16.50
2018-06-15T03:40:19.917Z,16.50
2018-06-15T03:42:47.489Z,16.40
2018-06-15T03:45:15.822Z,16.50
2018-06-15T03:47:43.427Z,16.60
2018-06-15T03:50:11.003Z,16.60
2018-06-15T03:52:38.563Z,16.60
2018-06-15T03:55:06.594Z,16.60
2018-06-15T03:57:34.165Z,16.50
2018-06-15T04:00:01.738Z,16.50
2018-06-15T04:02:29.347Z,16.50
2018-06-15T04:04:56.915Z,16.70
2018-06-15T04:07:24.481Z,16.70
2018-06-15T04:09:52.324Z,16.60
2018-06-15T04:12:19.891Z,16.60
2018-06-15T04:14:47.467Z,16.70
2018-06-15T04:17:15.545Z,16.70
2018-06-15T04:19:43.125Z,16.60
2018-06-15T04:22:10.679Z,16.60
2018-06-15T04:24:38.322Z,16.60
2018-06-15T04:27:06.620Z,16.60
2018-06-15T04:29:34.225Z,16.50
2018-06-15T04:32:01.782Z,16.60
2018-06-15T04:34:30.118Z,16.70
2018-06-15T04:36:57.690Z,16.70
2018-06-15T04:39:25.319Z,16.70
2018-06-15T04:41:52.898Z,16.70
2018-06-15T04:44:20.510Z,16.80
2018-06-15T04:46:48.123Z,16.80
2018-06-15T04:49:15.689Z,16.80
2018-06-15T04:51:43.277Z,16.80
2018-06-15T04:54:10.877Z,16.70
2018-06-15T04:56:38.454Z,16.70
2018-06-15T04:59:06.027Z,16.70
2018-06-15T05:01:34.017Z,16.80
2018-06-15T05:04:01.595Z,16.80
2018-06-15T05:06:29.161Z,16.70
2018-06-15T05:08:56.759Z,16.70
2018-06-15T05:11:24.330Z,16.70
2018-06-15T05:13:51.895Z,16.70
2018-06-15T05:16:19.502Z,16.80
2018-06-15T05:18:47.081Z,16.80
2018-06-15T05:21:14.649Z,16.70
2018-06-15T05:23:43.036Z,16.90
2018-06-15T05:26:11.371Z,16.90
2018-06-15T05:28:38.932Z,16.90
2018-06-15T05:31:06.526Z,16.90
2018-06-15T05:33:34.100Z,16.80
2018-06-15T05:36:02.432Z,16.80
2018-06-15T05:38:30.514Z,16.80
2018-06-15T05:40:58.093Z,16.80
2018-06-15T05:43:25.664Z,16.90
2018-06-15T05:45:53.281Z,17.10
2018-06-15T05:48:20.842Z,17.10
2018-06-15T05:50:48.413Z,17.10
2018-06-15T05:53:16.075Z,17.10
2018-06-15T05:55:43.712Z,17.20
2018-06-15T05:58:11.216Z,17.20
2018-06-15T06:00:38.835Z,17.20
2018-06-15T06:03:06.402Z,17.30
2018-06-15T06:05:33.972Z,17.30
2018-06-15T06:08:01.577Z,17.30
2018-06-15T06:10:29.150Z,17.40
2018-06-15T06:12:57.485Z,17.40
2018-06-15T06:15:25.099Z,17.40
2018-06-15T06:17:52.662Z,17.50
2018-06-15T06:20:20.221Z,17.60
2018-06-15T06:22:47.830Z,17.60
2018-06-15T06:25:15.404Z,17.70
2018-06-15T06:27:43.202Z,17.90
2018-06-15T06:30:11.567Z,18.10
2018-06-15T06:32:39.205Z,18.10
2018-06-15T06:35:06.704Z,18.10
2018-06-15T06:37:34.315Z,18.20
2018-06-15T06:40:01.878Z,18.20
2018-06-15T06:42:29.442Z,18.20
2018-06-15T06:44:57.091Z,18.20
2018-06-15T06:47:24.658Z,18.20
2018-06-15T06:49:52.223Z,18.10
2018-06-15T06:52:20.770Z,18.10
2018-06-15T06:54:48.329Z,18.10
2018-06-15T06:57:15.907Z,18.10
2018-06-15T06:59:43.541Z,18.10
2018-06-15T07:02:11.101Z,18.30
2018-06-15T07:04:38.659Z,18.30
2018-06-15T07:07:07.034Z,18.50
2018-06-15T07:09:35.363Z,18.50
2018-06-15T07:12:03.246Z,18.50
2018-06-15T07:14:31.828Z,18.60
2018-06-15T07:16:59.387Z,18.60
2018-06-15T07:19:26.942Z,18.60
2018-06-15T07:21:54.558Z,18.70
2018-06-15T07:24:22.117Z,18.70
2018-06-15T07:26:50.441Z,18.80
2018-06-15T07:29:18.055Z,18.80
2018-06-15T07:31:46.378Z,18.80
2018-06-15T07:34:13.958Z,18.80
2018-06-15T07:36:41.609Z,18.90
2018-06-15T07:39:09.174Z,18.90
2018-06-15T07:41:36.742Z,19.00
2018-06-15T07:44:04.354Z,19.00
2018-06-15T07:46:32.688Z,19.00
2018-06-15T07:49:00.243Z,19.00
2018-06-15T07:51:28.316Z,19.00
2018-06-15T07:53:55.884Z,19.00
2018-06-15T07:56:23.443Z,19.00
2018-06-15T07:58:51.764Z,19.00
2018-06-15T08:01:19.332Z,19.10
2018-06-15T08:03:46.883Z,19.00
2018-06-15T08:06:15.257Z,18.90
2018-06-15T08:08:42.814Z,18.90
2018-06-15T08:11:11.142Z,18.90
2018-06-15T08:13:38.754Z,18.90
2018-06-15T08:16:06.323Z,18.90
2018-06-15T08:18:33.874Z,18.80
2018-06-15T08:21:02.224Z,18.80
2018-06-15T08:23:29.773Z,18.80
2018-06-15T08:25:57.327Z,18.80
2018-06-15T08:28:24.956Z,18.90
2018-06-15T08:30:52.510Z,18.90
2018-06-15T08:33:20.835Z,19.00
2018-06-15T08:35:49.253Z,19.00
2018-06-15T08:38:16.813Z,19.10
2018-06-15T08:40:44.956Z,19.20
2018-06-15T08:43:12.554Z,19.30
2018-06-15T08:45:40.107Z,19.40
2018-06-15T08:48:07.656Z,19.40
2018-06-15T08:50:35.713Z,19.50
2018-06-15T08:53:03.581Z,19.60
2018-06-15T08:55:31.137Z,19.60
2018-06-15T08:57:59.144Z,19.60
2018-06-15T09:00:26.700Z,19.60
2018-06-15T09:02:54.267Z,19.60
2018-06-15T09:05:21.870Z,19.60
2018-06-15T09:07:49.436Z,19.70
2018-06-15T09:10:16.991Z,19.60
2018-06-15T09:12:44.593Z,19.70
2018-06-15T09:15:12.201Z,19.70
2018-06-15T09:17:40.523Z,19.80
2018-06-15T09:20:08.167Z,19.80
2018-06-15T09:22:35.722Z,19.90
2018-06-15T09:25:03.277Z,19.90
2018-06-15T09:27:30.880Z,20.00
2018-06-15T09:29:58.439Z,20.10
2018-06-15T09:32:25.991Z,20.20
2018-06-15T09:34:53.596Z,20.30
2018-06-15T09:37:21.153Z,20.30
2018-06-15T09:39:49.481Z,20.50
2018-06-15T09:42:17.566Z,20.50
2018-06-15T09:44:45.129Z,20.60
2018-06-15T09:47:12.685Z,20.70
2018-06-15T09:49:40.764Z,20.70
2018-06-15T09:52:08.328Z,20.80
2018-06-15T09:54:35.886Z,20.80
2018-06-15T09:57:03.484Z,20.90
2018-06-15T09:59:31.807Z,21.00
2018-06-15T10:01:59.370Z,21.00
2018-06-15T10:04:27.901Z,21.10
2018-06-15T10:09:23.023Z,21.20
2018-06-15T10:11:51.062Z,21.20
2018-06-15T10:14:18.612Z,21.40
2018-06-15T10:16:46.229Z,21.40
2018-06-15T10:19:13.771Z,21.40
2018-06-15T10:21:41.331Z,21.50
2018-06-15T10:24:08.881Z,21.50
2018-06-15T10:26:36.520Z,21.60
2018-06-15T10:29:04.071Z,21.80
2018-06-15T10:31:31.623Z,21.90
2018-06-15T10:33:59.259Z,22.00
2018-06-15T10:36:27.586Z,22.10
2018-06-15T10:38:55.141Z,22.00
2018-06-15T10:41:22.788Z,22.10
2018-06-15T10:43:50.340Z,22.20
2018-06-15T10:46:17.978Z,22.30
2018-06-15T10:48:46.355Z,22.50
2018-06-15T10:51:13.910Z,22.50
2018-06-15T10:53:41.465Z,22.60
2018-06-15T10:56:09.107Z,22.80
2018-06-15T10:58:36.676Z,22.90
2018-06-15T11:01:04.225Z,23.10
2018-06-15T11:03:31.830Z,23.30
2018-06-15T11:06:00.166Z,23.50
2018-06-15T11:08:27.725Z,23.50
2018-06-15T11:10:55.350Z,23.60
2018-06-15T11:13:23.676Z,23.70
2018-06-15T11:15:51.221Z,23.70
2018-06-15T11:18:18.827Z,23.70
2018-06-15T11:20:46.381Z,23.60
2018-06-15T11:23:13.937Z,23.40
2018-06-15T11:25:41.535Z,23.30
2018-06-15T11:28:09.089Z,23.30
2018-06-15T11:30:37.427Z,23.20
2018-06-15T11:33:05.028Z,23.20
2018-06-15T11:35:33.354Z,23.10
2018-06-15T11:38:00.920Z,23.10
2018-06-15T11:40:29.515Z,23.10
2018-06-15T11:42:57.069Z,23.10
2018-06-15T11:45:24.629Z,23.10
2018-06-15T11:47:52.231Z,23.10
2018-06-15T11:50:19.794Z,23.10
2018-06-15T11:52:48.113Z,23.10
2018-06-15T11:55:15.752Z,23.10
2018-06-15T11:57:43.307Z,23.10
2018-06-15T12:00:10.861Z,23.10
2018-06-15T12:02:39.232Z,23.40
2018-06-15T12:05:07.557Z,23.50
2018-06-15T12:07:35.105Z,23.50
2018-06-15T12:10:02.709Z,23.60
2018-06-15T12:12:30.261Z,23.70
2018-06-15T12:14:57.816Z,23.70
2018-06-15T12:17:25.446Z,23.80
2018-06-15T12:19:53.007Z,24.10
2018-06-15T12:22:20.565Z,24.10
2018-06-15T12:24:48.200Z,24.20
2018-06-15T12:27:15.756Z,24.10
2018-06-15T12:29:43.303Z,24.40
2018-06-15T12:32:10.919Z,24.40
2018-06-15T12:34:38.917Z,24.50
2018-06-15T12:37:06.473Z,24.40
2018-06-15T12:39:34.074Z,24.40
2018-06-15T12:42:01.628Z,24.40
2018-06-15T12:44:29.197Z,24.40
2018-06-15T12:46:56.804Z,24.40
2018-06-15T12:49:24.365Z,24.60
2018-06-15T12:51:51.916Z,24.50
2018-06-15T12:54:20.940Z,24.40
2018-06-15T12:56:48.808Z,24.30
2018-06-15T12:59:16.401Z,24.10
2018-06-15T13:01:44.402Z,24.00
2018-06-15T13:04:11.955Z,23.90
2018-06-15T13:06:40.286Z,23.80
2018-06-15T13:09:07.886Z,23.80
2018-06-15T13:11:35.443Z,23.70
2018-06-15T13:14:03.759Z,23.70
2018-06-15T13:16:31.902Z,23.70
2018-06-15T13:18:59.417Z,23.70
2018-06-15T13:21:26.977Z,23.80
2018-06-15T13:23:54.589Z,23.80
2018-06-15T13:26:22.911Z,23.80
2018-06-15T13:28:50.480Z,23.80
2018-06-15T13:31:18.452Z,23.90
2018-06-15T13:36:13.578Z,23.80
2018-06-15T13:38:41.165Z,23.90
2018-06-15T13:41:08.722Z,23.90
2018-06-15T13:43:36.284Z,23.90
2018-06-15T13:46:03.893Z,24.00
2018-06-15T13:48:31.452Z,24.00
2018-06-15T13:50:59.016Z,24.20
2018-06-15T13:53:26.632Z,24.20
2018-06-15T13:55:54.189Z,24.20
2018-06-15T13:58:21.745Z,24.30
2018-06-15T14:00:49.386Z,24.30
2018-06-15T14:03:16.942Z,24.40
2018-06-15T14:05:44.502Z,24.50
2018-06-15T14:08:12.299Z,24.50
2018-06-15T14:10:39.853Z,24.50
2018-06-15T14:13:07.402Z,24.50
2018-06-15T14:15:35.010Z,24.60
2018-06-15T14:18:02.570Z,24.70
2018-06-15T14:20:30.885Z,24.80
2018-06-15T14:22:58.874Z,24.80
2018-06-15T14:25:26.439Z,24.80
2018-06-15T14:27:53.998Z,24.90
2018-06-15T14:30:21.795Z,24.90
2018-06-15T14:32:49.356Z,25.10
2018-06-15T14:35:16.898Z,25.30
2018-06-15T14:37:44.534Z,25.40
2018-06-15T14:40:12.101Z,25.70
2018-06-15T14:42:39.655Z,25.80
2018-06-15T14:45:07.326Z,26.00
2018-06-15T14:47:34.857Z,26.20
2018-06-15T14:50:02.412Z,26.30
2018-06-15T14:52:30.090Z,26.40
2018-06-15T14:54:57.650Z,26.60
2018-06-15T14:57:25.203Z,26.70
2018-06-15T14:59:52.821Z,26.90
2018-06-15T15:02:23.099Z,26.90
2018-06-15T15:04:50.702Z,27.00
2018-06-15T15:07:18.259Z,27.20
2018-06-15T15:09:45.823Z,27.20
2018-06-15T15:12:13.412Z,27.20
2018-06-15T15:14:41.791Z,27.40
2018-06-15T15:17:10.110Z,27.60
2018-06-15T15:19:37.663Z,27.50
2018-06-15T15:22:06.272Z,27.70
2018-06-15T15:24:33.839Z,27.80
2018-06-15T15:27:01.403Z,27.80
2018-06-15T15:29:29.007Z,27.70
2018-06-15T15:31:56.560Z,27.70
2018-06-15T15:34:24.118Z,27.70
2018-06-15T15:36:52.530Z,27.70
2018-06-15T15:39:20.091Z,27.70
2018-06-15T15:41:47.646Z,27.60
2018-06-15T15:44:15.281Z,27.50
2018-06-15T15:46:42.845Z,27.40
2018-06-15T15:49:11.164Z,27.20
2018-06-15T15:51:38.801Z,27.20
2018-06-15T15:54:06.360Z,27.10
2018-06-15T15:56:33.910Z,27.00
2018-06-15T15:59:02.276Z,26.70
2018-06-15T16:01:29.833Z,26.80
2018-06-15T16:03:57.384Z,26.70
2018-06-15T16:06:24.999Z,26.70
2018-06-15T16:08:52.546Z,26.80
2018-06-15T16:11:20.870Z,26.70
2018-06-15T16:13:48.486Z,26.70
2018-06-15T16:16:16.811Z,26.60
2018-06-15T16:18:44.370Z,26.60
2018-06-15T16:21:12.002Z,26.90
2018-06-15T16:23:39.588Z,27.20
2018-06-15T16:26:07.139Z,27.40
2018-06-15T16:28:34.767Z,27.60
2018-06-15T16:31:03.109Z,28.20
2018-06-15T16:33:30.660Z,28.10
2018-06-15T16:35:58.660Z,28.30
2018-06-15T16:38:26.218Z,28.50
2018-06-15T16:40:53.764Z,28.70
2018-06-15T16:43:21.419Z,28.70
2018-06-15T16:45:49.682Z,28.60
2018-06-15T16:48:17.241Z,28.60
2018-06-15T16:50:44.842Z,28.40
2018-06-15T16:53:12.394Z,28.30
2018-06-15T16:55:39.948Z,28.30
2018-06-15T16:58:08.046Z,28.50
2018-06-15T17:00:35.568Z,28.60
2018-06-15T17:03:03.123Z,28.70
2018-06-15T17:05:30.730Z,28.90
2018-06-15T17:07:58.291Z,29.00
2018-06-15T17:10:25.843Z,29.00
2018-06-15T17:12:53.480Z,28.90
2018-06-15T17:15:21.040Z,28.70
2018-06-15T17:17:48.600Z,28.70
2018-06-15T17:20:16.628Z,28.40
2018-06-15T17:22:44.182Z,28.20
2018-06-15T17:25:12.496Z,27.60
2018-06-15T17:27:40.101Z,27.60
2018-06-15T17:30:07.652Z,27.30
2018-06-15T17:32:35.204Z,27.10
2018-06-15T17:35:02.821Z,26.90
2018-06-15T17:37:30.404Z,26.70
2018-06-15T17:39:58.697Z,26.30
2018-06-15T17:42:26.969Z,26.30
2018-06-15T17:44:54.516Z,26.20
2018-06-15T17:47:22.067Z,26.00
2018-06-15T17:49:50.197Z,25.90
2018-06-15T17:52:17.756Z,25.80
2018-06-15T17:54:45.307Z,25.70
2018-06-15T17:57:12.911Z,25.60
2018-06-15T17:59:41.301Z,25.40
2018-06-15T18:02:08.805Z,25.40
2018-06-15T18:04:36.444Z,25.30
2018-06-15T18:07:04.001Z,25.30
2018-06-15T18:09:31.551Z,25.30
2018-06-15T18:11:59.154Z,25.20
2018-06-15T18:14:26.703Z,25.10
2018-06-15T18:16:54.254Z,25.00
2018-06-15T18:19:21.879Z,25.10
2018-06-15T18:21:50.206Z,24.90
2018-06-15T18:24:17.766Z,24.90
2018-06-15T18:26:45.936Z,24.80
2018-06-15T18:29:13.490Z,24.70
2018-06-15T18:31:41.061Z,24.50
2018-06-15T18:34:08.664Z,24.40
2018-06-15T18:36:36.982Z,24.20
2018-06-15T18:39:04.536Z,24.20
2018-06-15T18:41:32.538Z,24.10
2018-06-15T18:44:00.096Z,24.00
2018-06-15T18:46:27.653Z,23.90
2018-06-15T18:48:55.255Z,23.80
2018-06-15T18:51:22.830Z,23.80
2018-06-15T18:53:50.388Z,23.70
2018-06-15T18:56:18.028Z,23.60
2018-06-15T18:58:45.589Z,23.50
2018-06-15T19:01:13.143Z,23.40
2018-06-15T19:03:40.746Z,23.60
2018-06-15T19:06:09.067Z,23.40
2018-06-15T19:08:36.627Z,23.40
2018-06-15T19:11:04.822Z,23.30
2018-06-15T19:13:32.385Z,23.20
2018-06-15T19:15:59.934Z,23.10
2018-06-15T19:18:27.535Z,23.00
2018-06-15T19:20:55.856Z,22.80
2018-06-15T19:23:23.408Z,22.80
2018-06-15T19:25:51.048Z,22.70
2018-06-15T19:28:18.604Z,22.60
2018-06-15T19:30:46.928Z,22.50
2018-06-15T19:33:15.404Z,22.40
2018-06-15T19:35:42.955Z,22.40
2018-06-15T19:38:10.507Z,22.30
2018-06-15T19:40:38.508Z,22.20
2018-06-15T19:43:06.062Z,22.10
2018-06-15T19:45:33.621Z,22.00
2018-06-15T19:48:01.266Z,21.90
2018-06-15T19:50:28.816Z,21.80
2018-06-15T19:52:56.371Z,21.70
2018-06-15T19:55:24.684Z,21.70
2018-06-15T19:57:52.654Z,21.60
2018-06-15T20:00:20.213Z,21.50
2018-06-15T20:02:48.777Z,21.40
2018-06-15T20:05:16.400Z,21.30
2018-06-15T20:07:47.001Z,21.30
2018-06-15T20:10:14.744Z,21.20
2018-06-15T20:12:42.302Z,21.10
2018-06-15T20:15:09.854Z,21.00
2018-06-15T20:17:37.464Z,20.90
2018-06-15T20:20:05.014Z,20.80
2018-06-15T20:22:32.573Z,20.70
2018-06-15T20:25:00.183Z,20.60
2018-06-15T20:27:27.740Z,20.70
2018-06-15T20:29:55.293Z,20.60
2018-06-15T20:32:24.589Z,20.40
2018-06-15T20:34:52.143Z,20.40
2018-06-15T20:37:19.704Z,20.30
2018-06-15T20:39:47.751Z,20.10
2018-06-15T20:42:15.324Z,20.00
2018-06-15T20:44:42.880Z,20.10
2018-06-15T20:47:10.523Z,20.00
2018-06-15T20:49:38.079Z,19.90
2018-06-15T20:52:05.637Z,19.80
2018-06-15T20:54:33.678Z,19.70
2018-06-15T20:57:01.247Z,19.80
2018-06-15T20:59:29.975Z,19.50
2018-06-15T21:01:57.583Z,19.50
2018-06-15T21:04:25.145Z,19.40
2018-06-15T21:06:52.704Z,19.30
2018-06-15T21:09:20.359Z,19.20
2018-06-15T21:11:47.907Z,19.10
2018-06-15T21:14:15.461Z,19.00
2018-06-15T21:16:43.101Z,18.90
2018-06-15T21:19:10.658Z,19.00
2018-06-15T21:21:38.219Z,18.90
2018-06-15T21:24:05.828Z,18.90
2018-06-15T21:26:33.390Z,18.80
2018-06-15T21:29:00.947Z,18.70
2018-06-15T21:31:28.585Z,18.60
2018-06-15T21:33:56.651Z,18.60
2018-06-15T21:36:24.201Z,18.50
2018-06-15T21:38:52.158Z,18.60
2018-06-15T21:41:19.713Z,18.50
2018-06-15T21:43:47.274Z,18.40
2018-06-15T21:46:14.906Z,18.30
2018-06-15T21:48:43.233Z,18.20
2018-06-15T21:51:10.796Z,18.20
2018-06-15T21:53:38.400Z,18.10
2018-06-15T21:56:06.011Z,18.10
2018-06-15T21:58:33.568Z,18.00
2018-06-15T22:01:01.194Z,18.00
2018-06-15T22:03:29.523Z,17.90
2018-06-15T22:05:57.098Z,17.80
2018-06-15T22:08:24.705Z,17.80
2018-06-15T22:10:53.240Z,17.70
2018-06-15T22:13:20.811Z,17.70
2018-06-15T22:15:48.430Z,17.70
2018-06-15T22:18:15.983Z,17.60
2018-06-15T22:20:43.547Z,17.60
2018-06-15T22:23:11.156Z,17.50
2018-06-15T22:25:38.712Z,17.40
2018-06-15T22:28:06.273Z,17.40
2018-06-15T22:30:34.340Z,17.40
2018-06-15T22:33:01.913Z,17.30
2018-06-15T22:35:29.468Z,17.50
2018-06-15T22:37:57.739Z,17.40
2018-06-15T22:40:25.286Z,17.40
2018-06-15T22:42:52.841Z,17.30
2018-06-15T22:45:21.039Z,17.30
2018-06-15T22:47:48.594Z,17.20
2018-06-15T22:50:16.154Z,17.10
2018-06-15T22:52:43.740Z,17.10
2018-06-15T22:55:11.296Z,17.00
2018-06-15T22:57:38.855Z,16.90
2018-06-15T23:00:06.866Z,16.90
2018-06-15T23:02:35.197Z,16.70
2018-06-15T23:05:02.757Z,16.70
2018-06-15T23:07:30.366Z,16.70
2018-06-15T23:09:58.687Z,16.60
2018-06-15T23:12:26.237Z,16.60
2018-06-15T23:14:53.828Z,16.60
2018-06-15T23:17:21.388Z,16.50
2018-06-15T23:19:48.945Z,16.60
2018-06-15T23:22:16.560Z,16.70
2018-06-15T23:24:44.120Z,16.80
2018-06-15T23:27:11.679Z,16.90
2018-06-15T23:29:39.288Z,16.90
2018-06-15T23:32:06.854Z,16.80
2018-06-15T23:34:34.418Z,16.70
2018-06-15T23:37:02.003Z,16.60
2018-06-15T23:39:29.564Z,16.50
2018-06-15T23:41:57.124Z,16.40
2018-06-15T23:44:24.765Z,16.40
2018-06-15T23:46:52.341Z,16.30
2018-06-15T23:49:19.909Z,16.30
2018-06-15T23:51:47.948Z,16.40
2018-06-15T23:54:15.504Z,16.40
2018-06-15T23:56:43.057Z,16.30
2018-06-15T23:59:10.651Z,16.30
